PWSweather.com
Personal Weather Stations
Station Observations

YeovilGB

Lat: 50.949, Lon: -2.627

Elevation: 70

Station Type: Vantage Pro

http://www.yeovil-weather.me.uk/

High Low Average
Temperature 50.8°F10.4°C 46.3°F7.9°C 48.9°F9.4°C
Dew Point 48.0°F8.9°C 45.3°F7.4°C 47.0°F8.3°C
Winds 9.2 mph 14.8 kmh Calm Calm 3.0 mph SSW4.8 kmh SSW
Wind Gusts 16.1 mph25.9 kmh -- 7.0 mph11.3 kmh
Humidity 97% 89% 93%
Pressure 30.45 in1031.2 mb 30.06 in1017.9 mb -
Precipitation 0.01 in0.3 mm - -
Hour Temp Dew Point Humidity Winds Wind Gusts Pressure Precip Precip Rate Daily Precip Total
01:10 AM 47.6°F8.7°C 46.5°F8.1°C 96% 2.3 mph SW3.7 kmh SW 3.5 mph5.6 kmh 30.45 in1031.2 mb - 0.00 in0.0 mm 0.00 in0.0 mm
02:00 AM 47.4°F8.6°C 46.3°F7.9°C 96% 2.3 mph SW3.7 kmh SW 4.6 mph7.4 kmh 30.43 in1030.5 mb - 0.00 in0.0 mm 0.00 in0.0 mm
02:10 AM 47.4°F8.6°C 46.3°F7.9°C 96% 3.5 mph SW5.6 kmh SW 8.1 mph13.0 kmh 30.43 in1030.5 mb - 0.00 in0.0 mm 0.00 in0.0 mm
02:30 AM 47.4°F8.6°C 46.3°F7.9°C 96% 2.3 mph WSW3.7 kmh WSW 3.5 mph5.6 kmh 30.43 in1030.5 mb - 0.00 in0.0 mm 0.00 in0.0 mm
02:40 AM 47.4°F8.6°C 46.3°F7.9°C 96% 3.5 mph SW5.6 kmh SW 6.9 mph11.1 kmh 30.43 in1030.5 mb - 0.00 in0.0 mm 0.00 in0.0 mm
03:00 AM 47.3°F8.5°C 46.2°F7.9°C 96% 3.5 mph SW5.6 kmh SW 3.5 mph5.6 kmh 30.42 in1030.1 mb - 0.00 in0.0 mm 0.00 in0.0 mm
03:10 AM 47.3°F8.5°C 46.2°F7.9°C 96% 1.2 mph SW1.9 kmh SW 5.8 mph9.3 kmh 30.42 in1030.1 mb - 0.00 in0.0 mm 0.00 in0.0 mm
03:30 AM 47.3°F8.5°C 46.2°F7.9°C 96% 1.2 mph SW1.9 kmh SW 5.8 mph9.3 kmh 30.41 in1029.8 mb - 0.00 in0.0 mm 0.00 in0.0 mm
03:40 AM 47.3°F8.5°C 46.2°F7.9°C 96% 2.3 mph SW3.7 kmh SW 4.6 mph7.4 kmh 30.40 in1029.5 mb - 0.00 in0.0 mm 0.00 in0.0 mm
03:50 AM 47.3°F8.5°C 46.2°F7.9°C 96% 1.2 mph SW1.9 kmh SW 1.2 mph1.9 kmh 30.40 in1029.5 mb - 0.00 in0.0 mm 0.00 in0.0 mm
04:00 AM 47.3°F8.5°C 46.2°F7.9°C 96% Calm Calm 5.8 mph9.3 kmh 30.39 in1029.1 mb - 0.00 in0.0 mm 0.00 in0.0 mm
04:10 AM 47.4°F8.6°C 46.3°F7.9°C 96% 1.2 mph SSW1.9 kmh SSW 4.6 mph7.4 kmh 30.39 in1029.1 mb - 0.00 in0.0 mm 0.00 in0.0 mm
04:20 AM 47.4°F8.6°C 46.3°F7.9°C 96% 2.3 mph SW3.7 kmh SW 3.5 mph5.6 kmh 30.39 in1029.1 mb - 0.00 in0.0 mm 0.00 in0.0 mm
04:30 AM 47.4°F8.6°C 46.3°F7.9°C 96% 3.5 mph SW5.6 kmh SW 5.8 mph9.3 kmh 30.38 in1028.8 mb - 0.00 in0.0 mm 0.00 in0.0 mm
04:40 AM 47.3°F8.5°C 46.2°F7.9°C 96% 1.2 mph SW1.9 kmh SW 3.5 mph5.6 kmh 30.38 in1028.8 mb - 0.00 in0.0 mm 0.00 in0.0 mm
04:50 AM 47.3°F8.5°C 46.2°F7.9°C 96% 1.2 mph SW1.9 kmh SW 5.8 mph9.3 kmh 30.38 in1028.8 mb - 0.00 in0.0 mm 0.00 in0.0 mm
05:00 AM 47.2°F8.4°C 46.1°F7.8°C 96% 1.2 mph SW1.9 kmh SW -- 30.38 in1028.8 mb - 0.00 in0.0 mm 0.00 in0.0 mm
05:10 AM 47.0°F8.3°C 45.9°F7.7°C 96% 3.5 mph SW5.6 kmh SW 4.6 mph7.4 kmh 30.37 in1028.4 mb - 0.00 in0.0 mm 0.00 in0.0 mm
05:20 AM 46.9°F8.3°C 45.8°F7.7°C 96% 1.2 mph SW1.9 kmh SW 5.8 mph9.3 kmh 30.37 in1028.4 mb - 0.00 in0.0 mm 0.00 in0.0 mm
05:30 AM 46.8°F8.2°C 45.7°F7.6°C 96% 3.5 mph SW5.6 kmh SW 5.8 mph9.3 kmh 30.37 in1028.4 mb - 0.00 in0.0 mm 0.00 in0.0 mm
05:40 AM 46.8°F8.2°C 45.7°F7.6°C 96% 3.5 mph SSW5.6 kmh SSW 5.8 mph9.3 kmh 30.37 in1028.4 mb - 0.00 in0.0 mm 0.00 in0.0 mm
05:50 AM 46.6°F8.1°C 45.5°F7.5°C 96% 1.2 mph SSW1.9 kmh SSW 3.5 mph5.6 kmh 30.37 in1028.4 mb - 0.00 in0.0 mm 0.00 in0.0 mm
06:00 AM 46.6°F8.1°C 45.5°F7.5°C 96% 2.3 mph S3.7 kmh S 6.9 mph11.1 kmh 30.36 in1028.1 mb - 0.00 in0.0 mm 0.00 in0.0 mm
06:10 AM 46.5°F8.1°C 45.5°F7.5°C 96% 4.6 mph S7.4 kmh S 8.1 mph13.0 kmh 30.36 in1028.1 mb - 0.00 in0.0 mm 0.00 in0.0 mm
06:20 AM 46.5°F8.1°C 45.4°F7.4°C 96% 2.3 mph S3.7 kmh S 5.8 mph9.3 kmh 30.36 in1028.1 mb - 0.00 in0.0 mm 0.00 in0.0 mm
06:30 AM 46.4°F8.0°C 45.3°F7.4°C 96% 3.5 mph SSW5.6 kmh SSW 5.8 mph9.3 kmh 30.36 in1028.1 mb - 0.00 in0.0 mm 0.00 in0.0 mm
06:40 AM 46.3°F7.9°C 45.5°F7.5°C 97% 2.3 mph SW3.7 kmh SW 3.5 mph5.6 kmh 30.35 in1027.8 mb - 0.00 in0.0 mm 0.00 in0.0 mm
06:50 AM 46.4°F8.0°C 45.6°F7.6°C 97% 1.2 mph SW1.9 kmh SW 3.5 mph5.6 kmh 30.35 in1027.8 mb - 0.00 in0.0 mm 0.00 in0.0 mm
07:00 AM 46.5°F8.1°C 45.7°F7.6°C 97% 2.3 mph SSW3.7 kmh SSW 4.6 mph7.4 kmh 30.35 in1027.8 mb - 0.00 in0.0 mm 0.00 in0.0 mm
07:10 AM 46.6°F8.1°C 45.8°F7.7°C 97% 2.3 mph SW3.7 kmh SW 10.4 mph16.7 kmh 30.35 in1027.8 mb - 0.00 in0.0 mm 0.00 in0.0 mm
07:20 AM 46.7°F8.2°C 45.9°F7.7°C 97% 4.6 mph SSW7.4 kmh SSW 8.1 mph13.0 kmh 30.34 in1027.4 mb - 0.00 in0.0 mm 0.00 in0.0 mm
07:30 AM 46.8°F8.2°C 45.7°F7.6°C 96% 2.3 mph SW3.7 kmh SW 9.2 mph14.8 kmh 30.34 in1027.4 mb - 0.00 in0.0 mm 0.00 in0.0 mm
07:40 AM 46.9°F8.3°C 45.8°F7.7°C 96% 1.2 mph SSW1.9 kmh SSW 2.3 mph3.7 kmh 30.34 in1027.4 mb - 0.00 in0.0 mm 0.00 in0.0 mm
07:50 AM 47.0°F8.3°C 46.2°F7.9°C 97% Calm Calm 1.2 mph1.9 kmh 30.33 in1027.1 mb - 0.00 in0.0 mm 0.00 in0.0 mm
08:00 AM 47.2°F8.4°C 46.4°F8.0°C 97% 6.9 mph SSW11.1 kmh SSW 10.4 mph16.7 kmh 30.33 in1027.1 mb - 0.00 in0.0 mm 0.00 in0.0 mm
08:10 AM 47.4°F8.6°C 46.3°F7.9°C 96% 4.6 mph SSW7.4 kmh SSW 11.5 mph18.5 kmh 30.33 in1027.1 mb - 0.00 in0.0 mm 0.00 in0.0 mm
08:20 AM 47.4°F8.6°C 46.3°F7.9°C 96% 2.3 mph SSW3.7 kmh SSW 3.5 mph5.6 kmh 30.32 in1026.8 mb - 0.00 in0.0 mm 0.00 in0.0 mm
08:30 AM 47.4°F8.6°C 46.3°F7.9°C 96% 9.2 mph SSW14.8 kmh SSW 11.5 mph18.5 kmh 30.32 in1026.8 mb - 0.00 in0.0 mm 0.00 in0.0 mm
08:40 AM 47.5°F8.6°C 46.4°F8.0°C 96% 3.5 mph SSW5.6 kmh SSW 10.4 mph16.7 kmh 30.32 in1026.8 mb - 0.00 in0.0 mm 0.00 in0.0 mm
08:50 AM 47.6°F8.7°C 46.5°F8.1°C 96% 8.1 mph SW13.0 kmh SW 11.5 mph18.5 kmh 30.32 in1026.8 mb - 0.00 in0.0 mm 0.00 in0.0 mm
09:00 AM 47.7°F8.7°C 46.7°F8.2°C 96% 3.5 mph SW5.6 kmh SW 11.5 mph18.5 kmh 30.32 in1026.8 mb - 0.00 in0.0 mm 0.00 in0.0 mm
09:10 AM 47.8°F8.8°C 46.4°F8.0°C 95% 4.6 mph SW7.4 kmh SW 9.2 mph14.8 kmh 30.32 in1026.8 mb - 0.00 in0.0 mm 0.00 in0.0 mm
09:20 AM 47.8°F8.8°C 46.7°F8.2°C 96% 6.9 mph SW11.1 kmh SW 11.5 mph18.5 kmh 30.32 in1026.8 mb - 0.00 in0.0 mm 0.00 in0.0 mm
09:30 AM 47.8°F8.8°C 46.4°F8.0°C 95% 2.3 mph SSW3.7 kmh SSW 2.3 mph3.7 kmh 30.32 in1026.8 mb - 0.00 in0.0 mm 0.00 in0.0 mm
09:40 AM 47.9°F8.8°C 46.5°F8.1°C 95% 4.6 mph SSW7.4 kmh SSW 12.7 mph20.4 kmh 30.32 in1026.8 mb - 0.00 in0.0 mm 0.00 in0.0 mm
09:50 AM 47.9°F8.8°C 46.5°F8.1°C 95% 3.5 mph SW5.6 kmh SW 13.8 mph22.2 kmh 30.32 in1026.8 mb - 0.00 in0.0 mm 0.00 in0.0 mm
10:00 AM 47.9°F8.8°C 46.6°F8.1°C 95% 6.9 mph SW11.1 kmh SW 10.4 mph16.7 kmh 30.32 in1026.8 mb - 0.00 in0.0 mm 0.00 in0.0 mm
10:10 AM 48.0°F8.9°C 46.6°F8.1°C 95% 1.2 mph SW1.9 kmh SW -- 30.31 in1026.4 mb - 0.00 in0.0 mm 0.00 in0.0 mm
10:20 AM 48.1°F8.9°C 46.7°F8.2°C 95% 2.3 mph SW3.7 kmh SW 10.4 mph16.7 kmh 30.31 in1026.4 mb - 0.00 in0.0 mm 0.00 in0.0 mm
10:30 AM 48.2°F9.0°C 46.6°F8.1°C 94% 6.9 mph SSW11.1 kmh SSW 11.5 mph18.5 kmh 30.31 in1026.4 mb - 0.00 in0.0 mm 0.00 in0.0 mm
10:40 AM 48.4°F9.1°C 46.5°F8.1°C 93% 6.9 mph SSW11.1 kmh SSW 11.5 mph18.5 kmh 30.31 in1026.4 mb - 0.00 in0.0 mm 0.00 in0.0 mm
10:50 AM 48.7°F9.3°C 46.8°F8.2°C 93% 6.9 mph SSW11.1 kmh SSW 11.5 mph18.5 kmh 30.31 in1026.4 mb - 0.00 in0.0 mm 0.00 in0.0 mm
11:00 AM 48.9°F9.4°C 46.7°F8.2°C 92% 5.8 mph SSW9.3 kmh SSW 9.2 mph14.8 kmh 30.30 in1026.1 mb - 0.00 in0.0 mm 0.00 in0.0 mm
11:10 AM 49.0°F9.4°C 46.8°F8.2°C 92% 8.1 mph SW13.0 kmh SW 11.5 mph18.5 kmh 30.30 in1026.1 mb - 0.00 in0.0 mm 0.00 in0.0 mm
11:20 AM 49.2°F9.6°C 46.9°F8.3°C 92% 4.6 mph S7.4 kmh S 8.1 mph13.0 kmh 30.29 in1025.7 mb - 0.00 in0.0 mm 0.00 in0.0 mm
11:30 AM 49.3°F9.6°C 47.1°F8.4°C 92% 6.9 mph SW11.1 kmh SW 11.5 mph18.5 kmh 30.29 in1025.7 mb - 0.00 in0.0 mm 0.00 in0.0 mm
11:40 AM 49.5°F9.7°C 47.3°F8.5°C 92% 5.8 mph SSW9.3 kmh SSW 8.1 mph13.0 kmh 30.29 in1025.7 mb - 0.00 in0.0 mm 0.00 in0.0 mm
11:50 AM 49.6°F9.8°C 47.4°F8.6°C 92% 6.9 mph SSW11.1 kmh SSW 11.5 mph18.5 kmh 30.28 in1025.4 mb - 0.00 in0.0 mm 0.00 in0.0 mm
12:00 PM 49.6°F9.8°C 47.4°F8.6°C 92% 8.1 mph SSW13.0 kmh SSW 12.7 mph20.4 kmh 30.28 in1025.4 mb - 0.00 in0.0 mm 0.00 in0.0 mm
12:10 PM 49.7°F9.8°C 47.5°F8.6°C 92% 4.6 mph SW7.4 kmh SW 11.5 mph18.5 kmh 30.28 in1025.4 mb - 0.00 in0.0 mm 0.00 in0.0 mm
12:20 PM 49.8°F9.9°C 47.6°F8.7°C 92% 8.1 mph SW13.0 kmh SW 16.1 mph25.9 kmh 30.27 in1025.1 mb - 0.00 in0.0 mm 0.00 in0.0 mm
12:30 PM 49.9°F9.9°C 47.4°F8.6°C 91% 1.2 mph SSW1.9 kmh SSW 4.6 mph7.4 kmh 30.27 in1025.1 mb - 0.00 in0.0 mm 0.00 in0.0 mm
12:40 PM 49.9°F9.9°C 47.4°F8.6°C 91% 1.2 mph SW1.9 kmh SW 11.5 mph18.5 kmh 30.27 in1025.1 mb - 0.00 in0.0 mm 0.00 in0.0 mm
12:50 PM 50.0°F10.0°C 47.8°F8.8°C 92% 3.5 mph SW5.6 kmh SW 6.9 mph11.1 kmh 30.26 in1024.7 mb - 0.00 in0.0 mm 0.00 in0.0 mm
01:00 PM 50.2°F10.1°C 48.0°F8.9°C 92% 5.8 mph SSW9.3 kmh SSW 9.2 mph14.8 kmh 30.26 in1024.7 mb - 0.00 in0.0 mm 0.00 in0.0 mm
01:10 PM 50.2°F10.1°C 48.0°F8.9°C 92% 6.9 mph SW11.1 kmh SW 9.2 mph14.8 kmh 30.25 in1024.4 mb - 0.00 in0.0 mm 0.00 in0.0 mm
01:20 PM 50.3°F10.2°C 47.8°F8.8°C 91% 3.5 mph SW5.6 kmh SW 5.8 mph9.3 kmh 30.24 in1024.0 mb - 0.00 in0.0 mm 0.00 in0.0 mm
01:30 PM 50.3°F10.2°C 47.8°F8.8°C 91% 5.8 mph SSW9.3 kmh SSW 10.4 mph16.7 kmh 30.24 in1024.0 mb - 0.00 in0.0 mm 0.00 in0.0 mm
01:40 PM 50.4°F10.2°C 47.9°F8.8°C 91% 3.5 mph SSW5.6 kmh SSW 10.4 mph16.7 kmh 30.23 in1023.7 mb - 0.00 in0.0 mm 0.00 in0.0 mm
01:50 PM 50.5°F10.3°C 48.0°F8.9°C 91% 3.5 mph SW5.6 kmh SW 8.1 mph13.0 kmh 30.23 in1023.7 mb - 0.01 in0.3 mm 0.01 in0.3 mm
02:00 PM 50.5°F10.3°C 47.7°F8.7°C 90% 6.9 mph SSW11.1 kmh SSW 11.5 mph18.5 kmh 30.23 in1023.7 mb - 0.00 in0.0 mm 0.01 in0.3 mm
02:10 PM 50.5°F10.3°C 47.7°F8.7°C 90% 4.6 mph SW7.4 kmh SW 11.5 mph18.5 kmh 30.22 in1023.4 mb - 0.00 in0.0 mm 0.01 in0.3 mm
02:20 PM 50.6°F10.3°C 47.8°F8.8°C 90% 4.6 mph SSW7.4 kmh SSW 10.4 mph16.7 kmh 30.22 in1023.4 mb - 0.00 in0.0 mm 0.01 in0.3 mm
02:30 PM 50.7°F10.4°C 47.9°F8.8°C 90% 4.6 mph SSW7.4 kmh SSW 6.9 mph11.1 kmh 30.21 in1023.0 mb - 0.00 in0.0 mm 0.01 in0.3 mm
02:40 PM 50.7°F10.4°C 47.9°F8.8°C 90% 1.2 mph SW1.9 kmh SW -- 30.21 in1023.0 mb - 0.00 in0.0 mm 0.01 in0.3 mm
02:50 PM 50.8°F10.4°C 48.0°F8.9°C 90% 1.2 mph SSW1.9 kmh SSW 6.9 mph11.1 kmh 30.21 in1023.0 mb - 0.00 in0.0 mm 0.01 in0.3 mm
03:00 PM 50.7°F10.4°C 47.9°F8.8°C 90% 5.8 mph SW9.3 kmh SW 11.5 mph18.5 kmh 30.20 in1022.7 mb - 0.00 in0.0 mm 0.01 in0.3 mm
03:10 PM 50.7°F10.4°C 47.9°F8.8°C 90% 4.6 mph SW7.4 kmh SW 4.6 mph7.4 kmh 30.20 in1022.7 mb - 0.00 in0.0 mm 0.01 in0.3 mm
03:20 PM 50.6°F10.3°C 47.8°F8.8°C 90% 1.2 mph SSW1.9 kmh SSW 4.6 mph7.4 kmh 30.20 in1022.7 mb - 0.00 in0.0 mm 0.01 in0.3 mm
03:30 PM 50.6°F10.3°C 47.8°F8.8°C 90% 3.5 mph SW5.6 kmh SW 11.5 mph18.5 kmh 30.20 in1022.7 mb - 0.00 in0.0 mm 0.01 in0.3 mm
03:40 PM 50.5°F10.3°C 47.7°F8.7°C 90% Calm Calm 5.8 mph9.3 kmh 30.20 in1022.7 mb - 0.00 in0.0 mm 0.01 in0.3 mm
03:50 PM 50.5°F10.3°C 47.7°F8.7°C 90% 1.2 mph SSW1.9 kmh SSW 1.2 mph1.9 kmh 30.19 in1022.4 mb - 0.00 in0.0 mm 0.01 in0.3 mm
04:00 PM 50.4°F10.2°C 47.6°F8.7°C 90% 3.5 mph SSW5.6 kmh SSW 5.8 mph9.3 kmh 30.19 in1022.4 mb - 0.00 in0.0 mm 0.01 in0.3 mm
04:10 PM 50.3°F10.2°C 47.5°F8.6°C 90% Calm Calm -- 30.19 in1022.4 mb - 0.00 in0.0 mm 0.01 in0.3 mm
04:20 PM 50.2°F10.1°C 47.7°F8.7°C 91% 2.3 mph S3.7 kmh S 9.2 mph14.8 kmh 30.19 in1022.4 mb - 0.00 in0.0 mm 0.01 in0.3 mm
04:30 PM 50.1°F10.1°C 47.6°F8.7°C 91% Calm Calm -- 30.18 in1022.0 mb - 0.00 in0.0 mm 0.01 in0.3 mm
04:40 PM 50.0°F10.0°C 47.5°F8.6°C 91% 1.2 mph SSW1.9 kmh SSW 2.3 mph3.7 kmh 30.18 in1022.0 mb - 0.00 in0.0 mm 0.01 in0.3 mm
04:50 PM 49.9°F9.9°C 47.7°F8.7°C 92% Calm Calm 3.5 mph5.6 kmh 30.18 in1022.0 mb - 0.00 in0.0 mm 0.01 in0.3 mm
05:00 PM 49.8°F9.9°C 47.3°F8.5°C 91% Calm Calm -- 30.17 in1021.7 mb - 0.00 in0.0 mm 0.01 in0.3 mm
05:10 PM 49.8°F9.9°C 47.0°F8.3°C 90% 2.3 mph SW3.7 kmh SW 6.9 mph11.1 kmh 30.17 in1021.7 mb - 0.00 in0.0 mm 0.01 in0.3 mm
05:20 PM 49.9°F9.9°C 46.8°F8.2°C 89% Calm Calm -- 30.17 in1021.7 mb - 0.00 in0.0 mm 0.01 in0.3 mm
05:30 PM 50.0°F10.0°C 46.9°F8.3°C 89% Calm Calm 3.5 mph5.6 kmh 30.17 in1021.7 mb - 0.00 in0.0 mm 0.01 in0.3 mm
05:40 PM 50.1°F10.1°C 47.3°F8.5°C 90% 2.3 mph S3.7 kmh S 6.9 mph11.1 kmh 30.17 in1021.7 mb - 0.00 in0.0 mm 0.01 in0.3 mm
05:50 PM 50.1°F10.1°C 47.6°F8.7°C 91% 3.5 mph SW5.6 kmh SW 9.2 mph14.8 kmh 30.16 in1021.3 mb - 0.00 in0.0 mm 0.01 in0.3 mm
06:00 PM 50.1°F10.1°C 47.6°F8.7°C 91% 2.3 mph SSW3.7 kmh SSW 6.9 mph11.1 kmh 30.16 in1021.3 mb - 0.00 in0.0 mm 0.01 in0.3 mm
06:10 PM 50.1°F10.1°C 47.5°F8.6°C 91% 2.3 mph SW3.7 kmh SW 4.6 mph7.4 kmh 30.16 in1021.3 mb - 0.00 in0.0 mm 0.01 in0.3 mm
06:20 PM 49.9°F9.9°C 47.4°F8.6°C 91% 1.2 mph SSW1.9 kmh SSW 11.5 mph18.5 kmh 30.16 in1021.3 mb - 0.00 in0.0 mm 0.01 in0.3 mm
06:30 PM 49.9°F9.9°C 47.7°F8.7°C 92% 2.3 mph SW3.7 kmh SW 8.1 mph13.0 kmh 30.16 in1021.3 mb - 0.00 in0.0 mm 0.01 in0.3 mm
06:40 PM 49.8°F9.9°C 47.6°F8.7°C 92% 6.9 mph SW11.1 kmh SW 13.8 mph22.2 kmh 30.15 in1021.0 mb - 0.00 in0.0 mm 0.01 in0.3 mm
06:50 PM 49.8°F9.9°C 47.6°F8.7°C 92% 4.6 mph SSW7.4 kmh SSW 6.9 mph11.1 kmh 30.15 in1021.0 mb - 0.00 in0.0 mm 0.01 in0.3 mm
07:00 PM 49.7°F9.8°C 47.5°F8.6°C 92% 5.8 mph SSW9.3 kmh SSW 11.5 mph18.5 kmh 30.15 in1021.0 mb - 0.00 in0.0 mm 0.01 in0.3 mm
07:10 PM 49.7°F9.8°C 47.5°F8.6°C 92% 2.3 mph SSW3.7 kmh SSW 6.9 mph11.1 kmh 30.15 in1021.0 mb - 0.00 in0.0 mm 0.01 in0.3 mm
07:20 PM 49.8°F9.9°C 47.6°F8.7°C 92% 4.6 mph SSW7.4 kmh SSW 11.5 mph18.5 kmh 30.14 in1020.7 mb - 0.00 in0.0 mm 0.01 in0.3 mm
07:30 PM 49.9°F9.9°C 47.7°F8.7°C 92% 3.5 mph SW5.6 kmh SW 11.5 mph18.5 kmh 30.14 in1020.7 mb - 0.00 in0.0 mm 0.01 in0.3 mm
07:40 PM 49.9°F9.9°C 47.7°F8.7°C 92% 4.6 mph SW7.4 kmh SW 5.8 mph9.3 kmh 30.14 in1020.7 mb - 0.00 in0.0 mm 0.01 in0.3 mm
07:50 PM 49.9°F9.9°C 47.7°F8.7°C 92% Calm Calm -- 30.14 in1020.7 mb - 0.00 in0.0 mm 0.01 in0.3 mm
08:00 PM 49.9°F9.9°C 47.7°F8.7°C 92% 4.6 mph SSW7.4 kmh SSW 11.5 mph18.5 kmh 30.14 in1020.7 mb - 0.00 in0.0 mm 0.01 in0.3 mm
08:10 PM 49.9°F9.9°C 47.4°F8.6°C 91% 4.6 mph SW7.4 kmh SW 6.9 mph11.1 kmh 30.14 in1020.7 mb - 0.00 in0.0 mm 0.01 in0.3 mm
08:30 PM 49.9°F9.9°C 47.4°F8.6°C 91% 2.3 mph SW3.7 kmh SW 9.2 mph14.8 kmh 30.13 in1020.3 mb - 0.00 in0.0 mm 0.01 in0.3 mm
08:40 PM 49.9°F9.9°C 47.4°F8.6°C 91% 3.5 mph S5.6 kmh S 8.1 mph13.0 kmh 30.13 in1020.3 mb - 0.00 in0.0 mm 0.01 in0.3 mm
09:00 PM 50.1°F10.1°C 47.6°F8.7°C 91% 3.5 mph S5.6 kmh S 8.1 mph13.0 kmh 30.12 in1020.0 mb - 0.00 in0.0 mm 0.01 in0.3 mm
09:10 PM 50.1°F10.1°C 47.6°F8.7°C 91% 3.5 mph S5.6 kmh S 6.9 mph11.1 kmh 30.12 in1020.0 mb - 0.00 in0.0 mm 0.01 in0.3 mm
09:30 PM 49.9°F9.9°C 47.7°F8.7°C 92% 4.6 mph SSW7.4 kmh SSW 9.2 mph14.8 kmh 30.11 in1019.6 mb - 0.00 in0.0 mm 0.01 in0.3 mm
09:50 PM 49.8°F9.9°C 47.6°F8.7°C 92% 5.8 mph SW9.3 kmh SW 9.2 mph14.8 kmh 30.11 in1019.6 mb - 0.00 in0.0 mm 0.01 in0.3 mm
10:00 PM 49.7°F9.8°C 47.5°F8.6°C 92% Calm Calm 6.9 mph11.1 kmh 30.11 in1019.6 mb - 0.00 in0.0 mm 0.01 in0.3 mm
10:10 PM 49.7°F9.8°C 47.8°F8.8°C 93% Calm Calm -- 30.10 in1019.3 mb - 0.00 in0.0 mm 0.01 in0.3 mm
10:20 PM 49.6°F9.8°C 47.7°F8.7°C 93% 1.2 mph SW1.9 kmh SW 8.1 mph13.0 kmh 30.10 in1019.3 mb - 0.00 in0.0 mm 0.01 in0.3 mm
10:30 PM 49.7°F9.8°C 47.8°F8.8°C 93% 5.8 mph SW9.3 kmh SW 9.2 mph14.8 kmh 30.09 in1019.0 mb - 0.00 in0.0 mm 0.01 in0.3 mm
10:40 PM 49.9°F9.9°C 47.9°F8.8°C 93% 4.6 mph S7.4 kmh S 8.1 mph13.0 kmh 30.09 in1019.0 mb - 0.00 in0.0 mm 0.01 in0.3 mm
10:50 PM 50.0°F10.0°C 47.8°F8.8°C 92% 4.6 mph SW7.4 kmh SW 10.4 mph16.7 kmh 30.09 in1019.0 mb - 0.00 in0.0 mm 0.01 in0.3 mm
11:00 PM 50.0°F10.0°C 47.8°F8.8°C 92% 3.5 mph SSW5.6 kmh SSW 8.1 mph13.0 kmh 30.08 in1018.6 mb - 0.00 in0.0 mm 0.01 in0.3 mm
11:10 PM 50.1°F10.1°C 47.9°F8.8°C 92% 5.8 mph SW9.3 kmh SW 15.0 mph24.1 kmh 30.08 in1018.6 mb - 0.00 in0.0 mm 0.01 in0.3 mm
11:20 PM 50.3°F10.2°C 47.8°F8.8°C 91% 4.6 mph SW7.4 kmh SW 5.8 mph9.3 kmh 30.08 in1018.6 mb - 0.00 in0.0 mm 0.01 in0.3 mm
11:30 PM 50.4°F10.2°C 47.8°F8.8°C 91% Calm Calm -- 30.07 in1018.3 mb - 0.00 in0.0 mm 0.01 in0.3 mm
11:40 PM 50.4°F10.2°C 47.8°F8.8°C 91% 3.5 mph SW5.6 kmh SW 11.5 mph18.5 kmh 30.07 in1018.3 mb - 0.00 in0.0 mm 0.01 in0.3 mm
11:50 PM 50.4°F10.2°C 47.8°F8.8°C 91% 6.9 mph SSW11.1 kmh SSW 11.5 mph18.5 kmh 30.06 in1017.9 mb - 0.00 in0.0 mm 0.01 in0.3 mm